createdAt,value
2023-05-09T00:00:37.472Z,7.80
2023-05-09T00:03:06.158Z,7.79
2023-05-09T00:05:33.939Z,7.66
2023-05-09T00:08:01.345Z,7.66
2023-05-09T00:10:29.055Z,7.61
2023-05-09T00:12:57.254Z,7.58
2023-05-09T00:15:26.123Z,7.55
2023-05-09T00:17:54.739Z,7.56
2023-05-09T00:20:22.261Z,7.62
2023-05-09T00:22:49.738Z,7.59
2023-05-09T00:25:17.541Z,7.54
2023-05-09T00:27:45.169Z,7.59
2023-05-09T00:30:13.103Z,7.45
2023-05-09T00:32:41.674Z,7.48
2023-05-09T00:35:10.343Z,7.50
2023-05-09T00:37:37.868Z,7.36
2023-05-09T00:40:07.702Z,7.33
2023-05-09T00:42:36.208Z,7.32
2023-05-09T00:45:04.012Z,7.28
2023-05-09T00:47:31.810Z,7.25
2023-05-09T00:49:59.789Z,7.24
2023-05-09T00:52:27.737Z,7.28
2023-05-09T00:54:56.019Z,7.22
2023-05-09T00:57:23.721Z,7.16
2023-05-09T00:59:51.456Z,7.10
2023-05-09T01:02:19.349Z,7.10
2023-05-09T01:04:47.410Z,7.04
2023-05-09T01:07:35.344Z,7.02
2023-05-09T01:10:11.796Z,7.04
2023-05-09T01:13:03.511Z,7.07
2023-05-09T01:15:36.739Z,7.07
2023-05-09T01:18:04.357Z,7.00
2023-05-09T01:20:56.690Z,6.96
2023-05-09T01:23:30.449Z,6.87
2023-05-09T01:26:05.687Z,6.87
2023-05-09T01:28:51.945Z,6.92
2023-05-09T01:31:20.552Z,6.93
2023-05-09T01:33:56.786Z,6.86
2023-05-09T01:36:29.731Z,6.90
2023-05-09T01:38:58.761Z,6.86
2023-05-09T01:41:30.922Z,6.86
2023-05-09T01:44:01.228Z,6.83
2023-05-09T01:46:29.565Z,6.77
2023-05-09T01:48:58.349Z,6.76
2023-05-09T01:51:27.165Z,6.66
2023-05-09T01:53:56.993Z,6.69
2023-05-09T01:56:25.910Z,6.70
2023-05-09T01:58:56.209Z,6.76
2023-05-09T02:01:24.661Z,6.71
2023-05-09T02:03:53.382Z,6.85
2023-05-09T02:06:23.482Z,6.70
2023-05-09T02:08:51.860Z,6.75
2023-05-09T02:11:19.356Z,6.82
2023-05-09T02:13:46.993Z,6.80
2023-05-09T02:16:14.590Z,6.76
2023-05-09T02:18:42.134Z,6.77
2023-05-09T02:21:09.742Z,6.81
2023-05-09T02:23:37.267Z,6.86
2023-05-09T02:26:04.808Z,6.76
2023-05-09T02:28:33.213Z,6.76
2023-05-09T02:31:04.561Z,6.72
2023-05-09T02:33:34.994Z,6.72
2023-05-09T02:36:03.040Z,6.62
2023-05-09T02:38:30.526Z,6.61
2023-05-09T02:40:58.184Z,6.69
2023-05-09T02:43:27.462Z,6.72
2023-05-09T02:45:55.987Z,6.72
2023-05-09T02:48:23.469Z,6.68
2023-05-09T02:50:51.014Z,6.66
2023-05-09T02:53:18.516Z,6.68
2023-05-09T02:55:46.197Z,6.65
2023-05-09T02:58:14.958Z,6.72
2023-05-09T03:00:44.360Z,6.72
2023-05-09T03:03:13.978Z,6.68
2023-05-09T03:05:41.570Z,6.59
2023-05-09T03:08:09.209Z,6.59
2023-05-09T03:10:36.812Z,6.57
2023-05-09T03:13:04.369Z,6.51
2023-05-09T03:15:32.021Z,6.50
2023-05-09T03:18:00.732Z,6.42
2023-05-09T03:20:28.268Z,6.49
2023-05-09T03:22:56.221Z,6.56
2023-05-09T03:25:24.695Z,6.55
2023-05-09T03:27:52.143Z,6.51
2023-05-09T03:30:19.836Z,6.57
2023-05-09T03:32:49.369Z,6.82
2023-05-09T03:35:17.276Z,7.22
2023-05-09T03:37:45.061Z,7.63
2023-05-09T03:40:12.751Z,7.98
2023-05-09T03:42:51.923Z,8.34
2023-05-09T03:45:19.447Z,8.62
2023-05-09T03:47:48.147Z,9.14
2023-05-09T03:50:16.319Z,9.34
2023-05-09T03:52:44.881Z,9.93
2023-05-09T03:55:16.031Z,10.59
2023-05-09T03:57:44.204Z,10.62
2023-05-09T04:00:12.673Z,10.67
2023-05-09T04:02:50.344Z,11.31
2023-05-09T04:05:27.433Z,11.66
2023-05-09T04:07:56.179Z,12.00
2023-05-09T04:10:25.487Z,12.28
2023-05-09T04:12:53.984Z,12.53
2023-05-09T04:15:21.510Z,12.35
2023-05-09T04:17:49.615Z,12.86
2023-05-09T04:20:17.222Z,13.01
2023-05-09T04:22:46.820Z,12.86
2023-05-09T04:25:17.122Z,13.13
2023-05-09T04:27:46.297Z,12.97
2023-05-09T04:30:14.447Z,13.84
2023-05-09T04:32:46.339Z,13.97
2023-05-09T04:35:17.473Z,14.02
2023-05-09T04:37:48.867Z,13.60
2023-05-09T04:40:17.250Z,12.96
2023-05-09T04:42:52.660Z,13.05
2023-05-09T04:45:23.497Z,13.27
2023-05-09T04:47:51.836Z,13.91
2023-05-09T04:50:19.381Z,13.54
2023-05-09T04:52:46.939Z,13.77
2023-05-09T04:55:14.624Z,14.31
2023-05-09T04:57:45.753Z,13.71
2023-05-09T05:00:13.815Z,14.14
2023-05-09T05:02:41.934Z,13.97
2023-05-09T05:05:17.904Z,14.06
2023-05-09T05:07:45.626Z,13.17
2023-05-09T05:10:18.914Z,13.37
2023-05-09T05:12:51.045Z,13.74
2023-05-09T05:15:19.728Z,13.41
2023-05-09T05:17:48.679Z,13.47
2023-05-09T05:20:19.751Z,14.45
2023-05-09T05:22:47.633Z,13.66
2023-05-09T05:25:15.567Z,13.90
2023-05-09T05:27:45.424Z,13.50
2023-05-09T05:30:15.761Z,13.91
2023-05-09T05:32:44.420Z,13.67
2023-05-09T05:35:14.122Z,13.82
2023-05-09T05:37:42.433Z,14.18
2023-05-09T05:40:10.487Z,15.06
2023-05-09T05:42:40.884Z,14.84
2023-05-09T05:45:09.280Z,15.06
2023-05-09T05:47:40.078Z,15.35
2023-05-09T05:50:11.700Z,15.67
2023-05-09T05:52:40.243Z,15.07
2023-05-09T05:55:09.631Z,14.52
2023-05-09T05:57:39.266Z,15.09
2023-05-09T06:00:11.428Z,15.29
2023-05-09T06:02:45.878Z,15.08
2023-05-09T06:05:21.168Z,15.32
2023-05-09T06:07:48.732Z,14.52
2023-05-09T06:10:17.261Z,14.48
2023-05-09T06:12:46.292Z,14.15
2023-05-09T06:15:14.046Z,14.07
2023-05-09T06:17:45.541Z,13.83
2023-05-09T06:20:13.097Z,14.50
2023-05-09T06:22:40.658Z,15.11
2023-05-09T06:25:10.634Z,15.39
2023-05-09T06:27:38.537Z,15.19
2023-05-09T06:30:23.890Z,15.40
2023-05-09T06:32:54.769Z,15.62
2023-05-09T06:35:22.471Z,15.34
2023-05-09T06:37:50.405Z,14.84
2023-05-09T06:40:17.945Z,15.81
2023-05-09T06:42:45.632Z,16.26
2023-05-09T06:45:13.551Z,17.25
2023-05-09T06:47:41.232Z,16.96
2023-05-09T06:50:09.294Z,17.15
2023-05-09T06:52:36.829Z,16.27
2023-05-09T06:55:04.633Z,15.59
2023-05-09T06:57:32.624Z,15.47
2023-05-09T07:00:00.063Z,15.21
2023-05-09T07:02:27.664Z,16.02
2023-05-09T07:04:55.281Z,16.26
2023-05-09T07:07:22.758Z,16.81
2023-05-09T07:09:53.009Z,16.46
2023-05-09T07:12:22.927Z,16.00
2023-05-09T07:14:50.319Z,16.33
2023-05-09T07:17:23.563Z,16.86
2023-05-09T07:19:52.012Z,16.17
2023-05-09T07:22:19.609Z,16.46
2023-05-09T07:24:47.321Z,16.08
2023-05-09T07:27:14.836Z,15.93
2023-05-09T07:29:42.957Z,16.49
2023-05-09T07:32:10.478Z,16.35
2023-05-09T07:34:38.050Z,16.77
2023-05-09T07:37:05.441Z,15.71
2023-05-09T07:39:33.011Z,15.45
2023-05-09T07:42:00.414Z,16.04
2023-05-09T07:44:28.043Z,16.47
2023-05-09T07:47:02.707Z,16.33
2023-05-09T07:49:30.250Z,16.69
2023-05-09T07:51:57.913Z,17.11
2023-05-09T07:54:25.562Z,17.17
2023-05-09T07:56:53.371Z,17.16
2023-05-09T07:59:21.038Z,17.42
2023-05-09T08:01:48.810Z,16.96
2023-05-09T08:04:16.636Z,16.91
2023-05-09T08:06:44.193Z,16.98
2023-05-09T08:09:11.768Z,17.22
2023-05-09T08:11:39.531Z,17.24
2023-05-09T08:14:07.021Z,17.19
2023-05-09T08:16:34.544Z,17.67
2023-05-09T08:19:21.252Z,17.12
2023-05-09T08:21:48.752Z,17.32
2023-05-09T08:24:16.146Z,17.07
2023-05-09T08:26:44.369Z,16.86
2023-05-09T08:29:12.231Z,16.67
2023-05-09T08:31:39.824Z,17.03
2023-05-09T08:34:07.330Z,16.67
2023-05-09T08:36:34.856Z,16.85
2023-05-09T08:39:02.612Z,17.02
2023-05-09T08:41:36.061Z,17.02
2023-05-09T08:44:04.793Z,16.81
2023-05-09T08:46:37.337Z,17.40
2023-05-09T08:49:08.818Z,16.81
2023-05-09T08:51:38.258Z,16.52
2023-05-09T08:54:05.977Z,16.67
2023-05-09T08:56:35.404Z,16.62
2023-05-09T08:59:04.461Z,16.67
2023-05-09T09:01:33.865Z,16.70
2023-05-09T09:04:03.107Z,16.89
2023-05-09T09:06:33.515Z,17.12
2023-05-09T09:09:01.682Z,17.26
2023-05-09T09:11:30.492Z,17.24
2023-05-09T09:14:02.145Z,16.93
2023-05-09T09:16:30.285Z,17.03
2023-05-09T09:18:59.122Z,16.80
2023-05-09T09:21:27.487Z,17.19
2023-05-09T09:23:56.890Z,17.20
2023-05-09T09:26:25.081Z,17.23
2023-05-09T09:28:53.139Z,17.16
2023-05-09T09:31:24.497Z,17.47
2023-05-09T09:33:52.274Z,17.34
2023-05-09T09:36:30.648Z,17.56
2023-05-09T09:39:06.955Z,17.41
2023-05-09T09:41:36.568Z,17.83
2023-05-09T09:44:15.694Z,18.17
2023-05-09T09:46:56.211Z,17.54
2023-05-09T09:49:26.342Z,17.37
2023-05-09T09:51:58.551Z,17.29
2023-05-09T09:54:27.804Z,17.40
2023-05-09T09:56:56.718Z,17.40
2023-05-09T09:59:25.945Z,17.25
2023-05-09T10:02:07.560Z,17.25
2023-05-09T10:04:37.824Z,17.63
2023-05-09T10:07:07.531Z,17.33
2023-05-09T10:09:38.083Z,17.15
2023-05-09T10:12:08.458Z,16.92
2023-05-09T10:14:38.477Z,16.95
2023-05-09T10:17:06.563Z,17.03
2023-05-09T10:19:38.212Z,17.10
2023-05-09T10:22:10.451Z,16.80
2023-05-09T10:24:49.091Z,17.11
2023-05-09T10:27:22.229Z,17.06
2023-05-09T10:29:55.779Z,17.22
2023-05-09T10:32:46.523Z,17.24
2023-05-09T10:35:17.331Z,16.85
2023-05-09T10:37:48.212Z,17.59
2023-05-09T10:40:16.098Z,17.68
2023-05-09T10:42:44.192Z,17.74
2023-05-09T10:45:15.389Z,17.81
2023-05-09T10:47:45.428Z,17.74
2023-05-09T10:50:13.929Z,17.72
2023-05-09T10:53:09.202Z,17.61
2023-05-09T10:55:56.726Z,17.56
2023-05-09T10:58:29.907Z,17.62
2023-05-09T11:00:59.823Z,17.50
2023-05-09T11:03:30.744Z,17.55
2023-05-09T11:05:59.030Z,17.58
2023-05-09T11:08:31.074Z,17.70
2023-05-09T11:11:04.109Z,17.68
2023-05-09T11:13:33.602Z,18.01
2023-05-09T11:16:01.327Z,18.03
2023-05-09T11:18:29.836Z,17.68
2023-05-09T11:20:57.338Z,17.96
2023-05-09T11:23:30.828Z,17.80
2023-05-09T11:26:06.756Z,18.15
2023-05-09T11:28:38.649Z,18.13
2023-05-09T11:31:15.246Z,18.34
2023-05-09T11:33:47.865Z,18.36
2023-05-09T11:36:18.944Z,18.64
2023-05-09T11:38:47.459Z,18.52
2023-05-09T11:41:16.048Z,18.42
2023-05-09T11:43:46.895Z,18.45
2023-05-09T11:46:14.430Z,18.24
2023-05-09T11:48:44.928Z,18.37
2023-05-09T11:51:19.487Z,18.54
2023-05-09T11:53:50.637Z,18.82
2023-05-09T11:56:18.365Z,18.50
2023-05-09T11:58:46.957Z,18.67
2023-05-09T12:01:14.716Z,18.79
2023-05-09T12:03:44.384Z,18.85
2023-05-09T12:06:19.204Z,18.56
2023-05-09T12:08:47.720Z,18.63
2023-05-09T12:11:15.543Z,18.35
2023-05-09T12:13:50.506Z,18.25
2023-05-09T12:16:19.186Z,18.31
2023-05-09T12:18:47.470Z,18.77
2023-05-09T12:21:15.837Z,18.72
2023-05-09T12:23:43.719Z,18.63
2023-05-09T12:26:11.242Z,18.88
2023-05-09T12:28:39.430Z,18.97
2023-05-09T12:31:07.556Z,18.67
2023-05-09T12:33:37.174Z,18.48
2023-05-09T12:36:11.336Z,18.55
2023-05-09T12:38:39.242Z,18.22
2023-05-09T12:41:15.479Z,18.14
2023-05-09T12:43:56.484Z,18.71
2023-05-09T12:46:24.393Z,18.80
2023-05-09T12:48:51.983Z,18.73
2023-05-09T12:51:21.049Z,18.83
2023-05-09T12:53:48.913Z,19.01
2023-05-09T12:56:23.558Z,18.66
2023-05-09T12:58:53.255Z,18.57
2023-05-09T13:01:23.828Z,18.93
2023-05-09T13:03:53.366Z,18.74
2023-05-09T13:06:21.437Z,18.73
2023-05-09T13:08:59.189Z,18.67
2023-05-09T13:11:27.014Z,18.63
2023-05-09T13:13:55.319Z,18.46
2023-05-09T13:16:23.102Z,18.08
2023-05-09T13:18:50.819Z,18.27
2023-05-09T13:21:18.381Z,18.56
2023-05-09T13:23:45.891Z,18.37
2023-05-09T13:26:13.368Z,18.14
2023-05-09T13:28:40.875Z,18.49
2023-05-09T13:31:08.527Z,18.15
2023-05-09T13:33:36.167Z,18.22
2023-05-09T13:36:04.050Z,18.12
2023-05-09T13:38:32.397Z,18.42
2023-05-09T13:41:00.375Z,18.61
2023-05-09T13:43:27.821Z,18.47
2023-05-09T13:45:55.361Z,18.36
2023-05-09T13:48:22.827Z,18.39
2023-05-09T13:50:50.857Z,18.03
2023-05-09T13:53:18.443Z,17.85
2023-05-09T13:55:46.445Z,17.96
2023-05-09T13:58:14.029Z,18.02
2023-05-09T14:00:41.988Z,18.18
2023-05-09T14:03:09.587Z,18.28
2023-05-09T14:05:37.227Z,18.51
2023-05-09T14:08:04.971Z,18.50
2023-05-09T14:10:32.538Z,18.15
2023-05-09T14:13:00.162Z,18.06
2023-05-09T14:15:27.922Z,18.09
2023-05-09T14:17:55.439Z,18.20
2023-05-09T14:20:23.039Z,18.44
2023-05-09T14:22:50.573Z,18.08
2023-05-09T14:25:18.077Z,17.82
2023-05-09T14:27:45.675Z,17.78
2023-05-09T14:30:15.653Z,17.98
2023-05-09T14:32:43.480Z,18.03
2023-05-09T14:35:11.083Z,18.43
2023-05-09T14:37:38.773Z,18.14
2023-05-09T14:40:07.201Z,17.76
2023-05-09T14:42:35.635Z,18.02
2023-05-09T14:45:03.241Z,18.14
2023-05-09T14:47:30.855Z,18.27
2023-05-09T14:49:58.615Z,18.19
2023-05-09T14:52:26.246Z,17.95
2023-05-09T14:54:53.720Z,17.84
2023-05-09T14:57:21.806Z,17.60
2023-05-09T14:59:49.313Z,17.53
2023-05-09T15:02:16.840Z,17.56
2023-05-09T15:04:45.047Z,17.80
2023-05-09T15:07:12.734Z,17.78
2023-05-09T15:09:40.247Z,17.79
2023-05-09T15:12:07.892Z,17.88
2023-05-09T15:14:35.373Z,17.83
2023-05-09T15:17:04.448Z,17.65
2023-05-09T15:19:32.667Z,17.62
2023-05-09T15:22:00.787Z,17.70
2023-05-09T15:24:28.273Z,17.73
2023-05-09T15:26:56.124Z,17.55
2023-05-09T15:29:23.619Z,17.52
2023-05-09T15:31:51.469Z,17.56
2023-05-09T15:34:19.066Z,17.38
2023-05-09T15:36:46.817Z,17.52
2023-05-09T15:39:14.385Z,17.52
2023-05-09T15:41:42.160Z,17.58
2023-05-09T15:44:11.040Z,17.40
2023-05-09T15:46:38.571Z,17.27
2023-05-09T15:49:06.126Z,17.17
2023-05-09T15:51:33.543Z,17.16
2023-05-09T15:54:01.134Z,17.38
2023-05-09T15:56:28.625Z,17.15
2023-05-09T15:58:56.116Z,17.28
2023-05-09T16:01:23.610Z,17.12
2023-05-09T16:03:51.461Z,17.12
2023-05-09T16:06:19.192Z,17.03
2023-05-09T16:08:47.698Z,17.15
2023-05-09T16:11:15.260Z,17.30
2023-05-09T16:13:42.714Z,16.96
2023-05-09T16:16:10.276Z,16.97
2023-05-09T16:18:38.173Z,17.01
2023-05-09T16:21:05.796Z,16.82
2023-05-09T16:23:33.822Z,16.84
2023-05-09T16:26:01.353Z,16.74
2023-05-09T16:28:29.575Z,16.66
2023-05-09T16:30:57.390Z,16.71
2023-05-09T16:33:24.995Z,16.86
2023-05-09T16:35:52.478Z,16.77
2023-05-09T16:38:20.056Z,16.63
2023-05-09T16:40:47.632Z,16.58
2023-05-09T16:43:16.570Z,16.56
2023-05-09T16:45:44.053Z,16.48
2023-05-09T16:48:11.598Z,16.38
2023-05-09T16:50:39.360Z,16.43
2023-05-09T16:53:06.814Z,16.38
2023-05-09T16:55:34.330Z,16.29
2023-05-09T16:58:01.906Z,16.30
2023-05-09T17:00:29.479Z,16.34
2023-05-09T17:02:56.978Z,16.32
2023-05-09T17:05:24.898Z,16.29
2023-05-09T17:07:52.364Z,16.22
2023-05-09T17:10:19.960Z,16.17
2023-05-09T17:12:47.751Z,16.21
2023-05-09T17:15:15.251Z,16.07
2023-05-09T17:17:42.861Z,16.04
2023-05-09T17:20:11.793Z,15.96
2023-05-09T17:22:39.515Z,15.93
2023-05-09T17:25:07.784Z,15.82
2023-05-09T17:27:35.354Z,16.00
2023-05-09T17:30:03.349Z,15.94
2023-05-09T17:32:30.890Z,15.94
2023-05-09T17:34:58.547Z,15.69
2023-05-09T17:37:26.260Z,15.60
2023-05-09T17:39:54.355Z,15.65
2023-05-09T17:42:21.864Z,15.68
2023-05-09T17:44:50.515Z,15.65
2023-05-09T17:47:18.018Z,15.48
2023-05-09T17:49:45.519Z,15.38
2023-05-09T17:52:13.135Z,15.40
2023-05-09T17:54:41.542Z,15.34
2023-05-09T17:57:09.282Z,15.22
2023-05-09T17:59:40.519Z,15.20
2023-05-09T18:02:08.439Z,15.06
2023-05-09T18:04:36.000Z,15.03
2023-05-09T18:07:04.178Z,15.01
2023-05-09T18:09:31.910Z,14.87
2023-05-09T18:11:59.451Z,14.83
2023-05-09T18:14:27.250Z,14.66
2023-05-09T18:16:54.793Z,14.67
2023-05-09T18:19:22.296Z,14.60
2023-05-09T18:21:49.777Z,14.62
2023-05-09T18:24:19.472Z,14.48
2023-05-09T18:26:48.459Z,14.35
2023-05-09T18:29:17.273Z,14.38
2023-05-09T18:31:44.895Z,14.25
2023-05-09T18:34:13.075Z,14.18
2023-05-09T18:36:40.747Z,14.06
2023-05-09T18:39:09.075Z,14.02
2023-05-09T18:41:36.535Z,13.91
2023-05-09T18:44:04.303Z,14.05
2023-05-09T18:46:33.844Z,13.90
2023-05-09T18:49:03.128Z,13.99
2023-05-09T18:51:35.820Z,13.90
2023-05-09T18:54:03.528Z,13.88
2023-05-09T18:56:31.026Z,13.79
2023-05-09T18:58:58.549Z,13.83
2023-05-09T19:01:26.191Z,13.77
2023-05-09T19:03:55.262Z,13.66
2023-05-09T19:06:24.148Z,13.58
2023-05-09T19:08:52.249Z,13.64
2023-05-09T19:11:19.988Z,13.47
2023-05-09T19:13:50.353Z,13.60
2023-05-09T19:16:19.886Z,13.58
2023-05-09T19:18:48.102Z,13.69
2023-05-09T19:21:16.133Z,13.64
2023-05-09T19:23:47.789Z,13.73
2023-05-09T19:26:17.025Z,13.62
2023-05-09T19:28:46.250Z,13.57
2023-05-09T19:31:15.110Z,13.49
2023-05-09T19:33:45.699Z,13.45
2023-05-09T19:36:13.848Z,13.44
2023-05-09T19:38:41.404Z,13.35
2023-05-09T19:41:08.948Z,13.37
2023-05-09T19:43:36.544Z,13.36
2023-05-09T19:46:04.038Z,13.27
2023-05-09T19:48:31.608Z,13.21
2023-05-09T19:50:59.185Z,13.14
2023-05-09T19:53:26.717Z,13.24
2023-05-09T19:55:54.318Z,13.15
2023-05-09T19:58:21.834Z,13.12
2023-05-09T20:00:49.380Z,13.20
2023-05-09T20:03:17.025Z,13.08
2023-05-09T20:05:44.630Z,12.97
2023-05-09T20:08:12.200Z,12.99
2023-05-09T20:10:39.719Z,12.91
2023-05-09T20:13:07.240Z,12.89
2023-05-09T20:15:34.883Z,12.73
2023-05-09T20:18:03.776Z,12.73
2023-05-09T20:20:34.390Z,12.76
2023-05-09T20:23:02.317Z,12.75
2023-05-09T20:25:29.805Z,12.63
2023-05-09T20:27:57.300Z,12.68
2023-05-09T20:30:24.798Z,12.66
2023-05-09T20:32:52.745Z,12.76
2023-05-09T20:35:20.386Z,12.79
2023-05-09T20:37:47.937Z,12.71
2023-05-09T20:40:15.803Z,12.73
2023-05-09T20:42:43.620Z,12.73
2023-05-09T20:45:11.181Z,12.68
2023-05-09T20:47:39.794Z,12.63
2023-05-09T20:50:07.900Z,12.55
2023-05-09T20:52:35.522Z,12.66
2023-05-09T20:55:03.100Z,12.55
2023-05-09T20:57:30.630Z,12.59
2023-05-09T20:59:58.137Z,12.52
2023-05-09T21:02:25.773Z,12.54
2023-05-09T21:04:53.337Z,12.56
2023-05-09T21:07:20.942Z,12.62
2023-05-09T21:09:48.909Z,12.61
2023-05-09T21:12:16.880Z,12.60
2023-05-09T21:14:44.887Z,12.63
2023-05-09T21:17:12.625Z,12.70
2023-05-09T21:19:40.215Z,12.66
2023-05-09T21:22:07.775Z,12.55
2023-05-09T21:24:35.424Z,12.62
2023-05-09T21:27:02.918Z,12.50
2023-05-09T21:29:30.538Z,12.60
2023-05-09T21:31:57.967Z,12.63
2023-05-09T21:34:25.552Z,12.60
2023-05-09T21:36:52.986Z,12.54
2023-05-09T21:39:20.406Z,12.63
2023-05-09T21:41:47.879Z,12.58
2023-05-09T21:44:15.483Z,12.46
2023-05-09T21:46:46.270Z,12.57
2023-05-09T21:49:16.810Z,12.40
2023-05-09T21:51:44.299Z,12.42
2023-05-09T21:54:11.784Z,12.44
2023-05-09T21:56:39.274Z,12.45
2023-05-09T21:59:06.660Z,12.45
2023-05-09T22:01:34.324Z,12.48
2023-05-09T22:04:02.322Z,12.32
2023-05-09T22:06:29.919Z,12.31
2023-05-09T22:08:57.424Z,12.26
2023-05-09T22:11:24.951Z,12.29
2023-05-09T22:13:52.488Z,12.27
2023-05-09T22:16:20.061Z,12.22
2023-05-09T22:18:47.859Z,12.21
2023-05-09T22:21:15.331Z,12.21
2023-05-09T22:23:43.315Z,12.12
2023-05-09T22:26:11.002Z,12.19
2023-05-09T22:28:38.495Z,12.19
2023-05-09T22:31:07.069Z,12.20
2023-05-09T22:33:34.958Z,12.19
2023-05-09T22:36:02.517Z,12.12
2023-05-09T22:38:30.743Z,12.02
2023-05-09T22:40:58.450Z,11.90
2023-05-09T22:43:28.840Z,11.98
2023-05-09T22:46:01.412Z,11.86
2023-05-09T22:48:29.056Z,11.75
2023-05-09T22:50:56.570Z,11.76
2023-05-09T22:53:23.941Z,11.78
2023-05-09T22:55:52.765Z,11.79
2023-05-09T22:58:20.266Z,11.75
2023-05-09T23:00:47.786Z,11.83
2023-05-09T23:03:15.535Z,11.75
2023-05-09T23:05:43.625Z,11.75
2023-05-09T23:08:11.191Z,11.77
2023-05-09T23:10:38.907Z,11.81
2023-05-09T23:13:06.473Z,11.70
2023-05-09T23:15:34.026Z,11.68
2023-05-09T23:18:02.084Z,11.73
2023-05-09T23:20:29.634Z,11.65
2023-05-09T23:22:57.071Z,11.64
2023-05-09T23:25:24.609Z,11.53
2023-05-09T23:27:52.039Z,11.51
2023-05-09T23:30:19.589Z,11.58
2023-05-09T23:32:47.198Z,11.46
2023-05-09T23:35:15.115Z,11.57
2023-05-09T23:37:43.035Z,11.53
2023-05-09T23:40:11.056Z,11.43
2023-05-09T23:42:38.469Z,11.38
2023-05-09T23:45:06.856Z,11.33
2023-05-09T23:47:34.287Z,11.29
2023-05-09T23:50:02.031Z,11.19
2023-05-09T23:52:29.502Z,11.24
2023-05-09T23:54:56.960Z,11.35
2023-05-09T23:57:24.396Z,11.27
2023-05-09T23:59:51.975Z,11.32
